Time;durP1;ratioP1;P1;durP2;ratioP2;P2;SDS_P1;SDS_P2;PMS_P1;PMS_P2;Temp;Humidity;BMP_temperature;BMP_pressure;BME280_temperature;BME280_humidity;BME280_pressure;Samples;Min_cycle;Max_cycle;Signal;HPM_P1;HPM_P2
2021/05/24 00:00:12;;;;;;;;;0.00;0.00;;;;;;;;5044991;28;8965;-82
2021/05/24 00:02:40;;;;;;;;;1.25;0.00;;;;;;;;5045813;28;8997;-80
2021/05/24 00:05:10;;;;;;;;;0.75;0.75;;;;;;;;5041883;28;8875;-82
2021/05/24 00:07:37;;;;;;;;;0.00;0.00;;;;;;;;5044332;28;8985;-82
2021/05/24 00:10:05;;;;;;;;;0.00;0.00;;;;;;;;5045635;28;8934;-83
2021/05/24 00:12:32;;;;;;;;;0.00;0.00;;;;;;;;5032912;28;8879;-82
2021/05/24 00:15:00;;;;;;;;;0.00;0.00;;;;;;;;5044016;28;8944;-83
2021/05/24 00:17:27;;;;;;;;;0.00;0.00;;;;;;;;5028291;28;8890;-82
2021/05/24 00:19:55;;;;;;;;;1.50;0.25;;;;;;;;5046573;28;9619;-82
2021/05/24 00:22:22;;;;;;;;;0.00;0.00;;;;;;;;5047132;28;8981;-82
2021/05/24 00:24:49;;;;;;;;;0.00;0.00;;;;;;;;5044345;28;8871;-82
2021/05/24 00:27:16;;;;;;;;;0.00;0.00;;;;;;;;5043009;28;8870;-85
2021/05/24 00:29:43;;;;;;;;;0.00;0.00;;;;;;;;5046252;28;8843;-83
2021/05/24 00:32:10;;;;;;;;;2.00;0.00;;;;;;;;5042548;28;8939;-83
2021/05/24 00:34:37;;;;;;;;;1.00;0.00;;;;;;;;5046149;28;8995;-83
2021/05/24 00:37:05;;;;;;;;;0.50;0.00;;;;;;;;5044076;28;8882;-83
2021/05/24 00:39:31;;;;;;;;;0.00;0.00;;;;;;;;5046111;28;9628;-82
2021/05/24 00:41:59;;;;;;;;;0.00;0.00;;;;;;;;5045996;28;9604;-84
2021/05/24 00:44:28;;;;;;;;;0.00;0.00;;;;;;;;5046635;28;8985;-84
2021/05/24 00:46:55;;;;;;;;;1.25;0.25;;;;;;;;5047054;28;8843;-84
2021/05/24 00:49:25;;;;;;;;;0.00;0.00;;;;;;;;5044685;28;8880;-84
2021/05/24 00:51:54;;;;;;;;;0.00;0.00;;;;;;;;5046913;28;8869;-84
2021/05/24 00:54:22;;;;;;;;;0.00;0.00;;;;;;;;5040031;28;8898;-83
2021/05/24 00:56:49;;;;;;;;;0.00;0.00;;;;;;;;5047391;28;8858;-83
2021/05/24 00:59:17;;;;;;;;;0.25;0.25;;;;;;;;5045070;28;9132;-84
2021/05/24 01:01:44;;;;;;;;;3.25;0.00;;;;;;;;5043615;28;8831;-83
2021/05/24 01:04:12;;;;;;;;;0.00;0.00;;;;;;;;5041968;28;9539;-82
2021/05/24 01:06:39;;;;;;;;;0.00;0.00;;;;;;;;5044407;28;8936;-83
2021/05/24 01:09:06;;;;;;;;;0.00;0.00;;;;;;;;5045485;28;8969;-83
2021/05/24 01:11:34;;;;;;;;;0.00;0.00;;;;;;;;5041899;28;8863;-82
2021/05/24 01:14:01;;;;;;;;;0.00;0.00;;;;;;;;5046234;28;8993;-82
2021/05/24 01:16:28;;;;;;;;;0.00;0.00;;;;;;;;5043822;28;8871;-82
2021/05/24 01:18:55;;;;;;;;;0.00;0.00;;;;;;;;5044217;28;8863;-83
2021/05/24 01:21:24;;;;;;;;;0.00;0.00;;;;;;;;5045723;28;8969;-83
2021/05/24 01:23:52;;;;;;;;;0.00;0.00;;;;;;;;5043841;28;8881;-84
2021/05/24 01:26:21;;;;;;;;;0.00;0.00;;;;;;;;5026490;28;8885;-84
2021/05/24 01:28:48;;;;;;;;;0.25;0.25;;;;;;;;5041886;28;9048;-84
2021/05/24 01:31:15;;;;;;;;;1.25;0.00;;;;;;;;5044887;28;8815;-84
2021/05/24 01:33:43;;;;;;;;;0.00;0.00;;;;;;;;5044598;28;8902;-84
2021/05/24 01:36:10;;;;;;;;;0.00;0.00;;;;;;;;5045695;28;8996;-84
2021/05/24 01:38:39;;;;;;;;;0.00;0.00;;;;;;;;5044494;28;8875;-84
2021/05/24 01:41:07;;;;;;;;;0.00;0.00;;;;;;;;5044497;28;8893;-84
2021/05/24 01:43:34;;;;;;;;;1.00;1.00;;;;;;;;5045354;28;9924;-86
2021/05/24 01:46:01;;;;;;;;;0.33;0.33;;;;;;;;5042026;28;9140;-83
2021/05/24 01:48:28;;;;;;;;;0.00;0.00;;;;;;;;5044542;28;9225;-84
2021/05/24 01:50:55;;;;;;;;;0.00;0.00;;;;;;;;5025095;28;9232;-81
2021/05/24 01:53:23;;;;;;;;;0.00;0.00;;;;;;;;5045282;28;9099;-84
2021/05/24 01:55:51;;;;;;;;;0.00;0.00;;;;;;;;5043512;28;9116;-83
2021/05/24 01:58:19;;;;;;;;;0.00;0.00;;;;;;;;5044809;28;9984;-84
2021/05/24 02:00:46;;;;;;;;;1.00;1.00;;;;;;;;5043749;28;9144;-85
2021/05/24 02:03:14;;;;;;;;;0.33;0.33;;;;;;;;5026264;28;9263;-85
2021/05/24 02:05:41;;;;;;;;;0.00;0.00;;;;;;;;5041690;28;9474;-84
2021/05/24 02:08:08;;;;;;;;;2.25;1.00;;;;;;;;5042202;28;9514;-81
2021/05/24 02:10:37;;;;;;;;;1.00;1.00;;;;;;;;5043707;28;9555;-82
2021/05/24 02:13:07;;;;;;;;;1.00;1.00;;;;;;;;5044032;28;9488;-82
2021/05/24 02:15:37;;;;;;;;;2.00;0.50;;;;;;;;5041053;28;9402;-82
2021/05/24 02:18:05;;;;;;;;;1.50;1.50;;;;;;;;5043610;28;9687;-82
2021/05/24 02:20:33;;;;;;;;;0.00;0.00;;;;;;;;5025309;28;9674;-82
2021/05/24 02:23:01;;;;;;;;;1.00;1.00;;;;;;;;5042629;28;9495;-81
2021/05/24 02:25:28;;;;;;;;;0.00;0.00;;;;;;;;5041296;28;9511;-82
2021/05/24 02:27:56;;;;;;;;;1.00;1.00;;;;;;;;5025170;28;9489;-82
2021/05/24 02:30:26;;;;;;;;;0.00;0.00;;;;;;;;5040045;28;9400;-82
2021/05/24 02:32:53;;;;;;;;;0.75;0.00;;;;;;;;5044226;28;9675;-82
2021/05/24 02:35:22;;;;;;;;;0.00;0.00;;;;;;;;5043784;28;10308;-82
2021/05/24 02:37:49;;;;;;;;;1.00;1.00;;;;;;;;5041110;28;10359;-81
2021/05/24 02:40:19;;;;;;;;;0.00;0.00;;;;;;;;5042015;28;9729;-83
2021/05/24 02:42:46;;;;;;;;;0.50;0.25;;;;;;;;5043775;28;9744;-82
2021/05/24 02:45:16;;;;;;;;;1.50;0.00;;;;;;;;5043163;28;9584;-82
2021/05/24 02:47:44;;;;;;;;;1.00;1.00;;;;;;;;5043084;28;9732;-83
2021/05/24 02:50:13;;;;;;;;;3.00;0.00;;;;;;;;5043539;28;9843;-84
2021/05/24 02:52:40;;;;;;;;;2.00;1.00;;;;;;;;5044349;28;9539;-83
2021/05/24 02:55:08;;;;;;;;;1.00;1.00;;;;;;;;5041716;28;9706;-85
2021/05/24 02:57:35;;;;;;;;;0.00;0.00;;;;;;;;5042873;28;11052;-83
2021/05/24 03:00:03;;;;;;;;;0.50;0.50;;;;;;;;5040480;28;9636;-84
2021/05/24 03:02:30;;;;;;;;;1.00;1.00;;;;;;;;5025196;28;9805;-83
2021/05/24 03:04:58;;;;;;;;;1.00;1.00;;;;;;;;5023085;28;9794;-83
2021/05/24 03:07:25;;;;;;;;;0.00;0.00;;;;;;;;5043189;28;9669;-84
2021/05/24 03:09:52;;;;;;;;;0.75;0.75;;;;;;;;5043032;28;9765;-82
2021/05/24 03:12:20;;;;;;;;;0.00;0.00;;;;;;;;5039288;28;9893;-83
2021/05/24 03:14:47;;;;;;;;;0.50;0.50;;;;;;;;5035238;28;9706;-83
2021/05/24 03:17:13;;;;;;;;;0.00;0.00;;;;;;;;5041322;28;9776;-83
2021/05/24 03:19:40;;;;;;;;;1.00;1.00;;;;;;;;5026132;28;9706;-82
2021/05/24 03:22:08;;;;;;;;;0.00;0.00;;;;;;;;5022778;28;9936;-79
2021/05/24 03:24:37;;;;;;;;;0.75;0.75;;;;;;;;5022619;28;9847;-80
2021/05/24 03:27:05;;;;;;;;;0.00;0.00;;;;;;;;5040321;28;9931;-80
2021/05/24 03:29:32;;;;;;;;;1.00;1.00;;;;;;;;5042672;28;9865;-83
2021/05/24 03:31:59;;;;;;;;;1.00;1.00;;;;;;;;5036978;28;9834;-83
2021/05/24 03:34:26;;;;;;;;;2.00;1.00;;;;;;;;5041342;28;9956;-82
2021/05/24 03:36:52;;;;;;;;;1.00;1.00;;;;;;;;5042993;28;10085;-81
2021/05/24 03:39:20;;;;;;;;;0.75;0.75;;;;;;;;5042147;28;9925;-82
2021/05/24 03:41:47;;;;;;;;;0.50;0.50;;;;;;;;5040798;28;10835;-83
2021/05/24 03:44:14;;;;;;;;;1.00;1.00;;;;;;;;5041902;28;9866;-83
2021/05/24 03:46:41;;;;;;;;;1.00;1.00;;;;;;;;5027339;28;9959;-80
2021/05/24 03:49:08;;;;;;;;;1.00;1.00;;;;;;;;5042350;28;10037;-82
2021/05/24 03:51:36;;;;;;;;;1.00;1.00;;;;;;;;5039782;28;9943;-81
2021/05/24 03:54:03;;;;;;;;;1.00;1.00;;;;;;;;5025222;28;9918;-82
2021/05/24 03:56:31;;;;;;;;;1.00;1.00;;;;;;;;5023079;28;10864;-82
2021/05/24 03:58:58;;;;;;;;;0.00;0.00;;;;;;;;5038776;28;10021;-83
2021/05/24 04:01:25;;;;;;;;;1.50;1.00;;;;;;;;5024346;28;10037;-81
2021/05/24 04:03:54;;;;;;;;;1.25;0.75;;;;;;;;5042655;28;10169;-83
2021/05/24 04:06:21;;;;;;;;;1.00;1.00;;;;;;;;5044166;28;10734;-82
2021/05/24 04:08:48;;;;;;;;;0.00;0.00;;;;;;;;5045755;28;10087;-81
2021/05/24 04:11:15;;;;;;;;;0.00;0.00;;;;;;;;5047154;28;10081;-83
2021/05/24 04:13:48;;;;;;;;;0.00;0.00;;;;;;;;5045867;28;10175;-83
2021/05/24 04:16:15;;;;;;;;;0.00;0.00;;;;;;;;5046755;28;10104;-83
2021/05/24 04:18:46;;;;;;;;;0.75;0.75;;;;;;;;5039530;28;10237;-83
2021/05/24 04:21:13;;;;;;;;;0.00;0.00;;;;;;;;5045596;28;10237;-82
2021/05/24 04:23:40;;;;;;;;;0.25;0.25;;;;;;;;5046132;28;10209;-82
2021/05/24 04:26:07;;;;;;;;;1.00;1.00;;;;;;;;5026302;28;10349;-84
2021/05/24 04:28:33;;;;;;;;;2.25;1.00;;;;;;;;5043022;28;11100;-81
2021/05/24 04:31:02;;;;;;;;;0.75;0.75;;;;;;;;5041338;28;10425;-82
2021/05/24 04:33:28;;;;;;;;;3.00;1.00;;;;;;;;5046423;28;10449;-85
2021/05/24 04:35:57;;;;;;;;;2.25;0.75;;;;;;;;5044983;28;10578;-82
2021/05/24 04:38:24;;;;;;;;;2.25;0.50;;;;;;;;5043059;28;10638;-83
2021/05/24 04:40:51;;;;;;;;;0.75;0.75;;;;;;;;5046148;28;10396;-82
2021/05/24 04:43:18;;;;;;;;;1.75;1.75;;;;;;;;5045215;28;10552;-83
2021/05/24 04:45:45;;;;;;;;;0.25;0.25;;;;;;;;5041111;28;10437;-84
2021/05/24 04:48:13;;;;;;;;;0.00;0.00;;;;;;;;5021520;28;10423;-83
2021/05/24 04:50:40;;;;;;;;;1.00;1.00;;;;;;;;5045255;28;10449;-83
2021/05/24 04:53:08;;;;;;;;;0.75;0.75;;;;;;;;5045169;28;10459;-81
2021/05/24 04:55:35;;;;;;;;;2.00;1.00;;;;;;;;5027354;28;10388;-82
2021/05/24 04:58:02;;;;;;;;;1.00;1.00;;;;;;;;5025704;28;10550;-83
2021/05/24 05:00:31;;;;;;;;;2.00;2.00;;;;;;;;5043988;28;10389;-84
2021/05/24 05:02:57;;;;;;;;;1.00;1.00;;;;;;;;5046355;28;10551;-83
2021/05/24 05:05:25;;;;;;;;;1.00;1.00;;;;;;;;5040594;28;10669;-82
2021/05/24 05:07:52;;;;;;;;;1.00;1.00;;;;;;;;5045939;28;10550;-82
2021/05/24 05:10:19;;;;;;;;;2.00;2.00;;;;;;;;5035710;28;10545;-81
2021/05/24 05:12:46;;;;;;;;;1.25;1.25;;;;;;;;5043428;28;10543;-81
2021/05/24 05:15:13;;;;;;;;;2.00;2.00;;;;;;;;5046492;28;10417;-80
2021/05/24 05:17:40;;;;;;;;;1.50;1.50;;;;;;;;5039597;28;10701;-80
2021/05/24 05:20:08;;;;;;;;;3.00;1.50;;;;;;;;5044551;28;10383;-80
2021/05/24 05:22:36;;;;;;;;;1.00;1.00;;;;;;;;5042275;28;10405;-81
2021/05/24 05:25:03;;;;;;;;;1.25;1.25;;;;;;;;5027267;28;10473;-82
2021/05/24 05:27:30;;;;;;;;;3.50;2.00;;;;;;;;5041263;28;10342;-81
2021/05/24 05:29:57;;;;;;;;;1.00;1.00;;;;;;;;5026856;28;10351;-82
2021/05/24 05:32:24;;;;;;;;;1.00;1.00;;;;;;;;5042331;28;10190;-81
2021/05/24 05:34:51;;;;;;;;;1.00;1.00;;;;;;;;5045027;28;10896;-80
2021/05/24 05:37:20;;;;;;;;;1.00;1.00;;;;;;;;5044333;28;10214;-82
2021/05/24 05:39:53;;;;;;;;;0.00;0.00;;;;;;;;5041449;28;10232;-81
2021/05/24 05:42:20;;;;;;;;;0.50;0.50;;;;;;;;5045065;28;9922;-82
2021/05/24 05:44:47;;;;;;;;;1.25;1.25;;;;;;;;5044287;28;10222;-83
2021/05/24 05:47:15;;;;;;;;;1.00;1.00;;;;;;;;5044098;28;9904;-81
2021/05/24 05:49:47;;;;;;;;;1.75;0.00;;;;;;;;5036347;28;9883;-83
2021/05/24 05:52:15;;;;;;;;;0.00;0.00;;;;;;;;5044409;28;9798;-81
2021/05/24 05:54:42;;;;;;;;;1.00;1.00;;;;;;;;5042216;28;10040;-82
2021/05/24 05:57:10;;;;;;;;;1.00;1.00;;;;;;;;5044224;28;9987;-82
2021/05/24 05:59:38;;;;;;;;;0.00;0.00;;;;;;;;5010096;28;9859;-81
2021/05/24 06:02:05;;;;;;;;;0.25;0.25;;;;;;;;5042690;28;10505;-83
2021/05/24 06:04:32;;;;;;;;;1.25;1.00;;;;;;;;5043789;28;9784;-81
2021/05/24 06:06:59;;;;;;;;;0.00;0.00;;;;;;;;5042272;28;9886;-85
2021/05/24 06:09:26;;;;;;;;;0.00;0.00;;;;;;;;5031000;28;9681;-82
2021/05/24 06:11:53;;;;;;;;;0.00;0.00;;;;;;;;5042557;28;9765;-78
2021/05/24 06:14:22;;;;;;;;;0.00;0.00;;;;;;;;5044013;28;9717;-76
2021/05/24 06:16:49;;;;;;;;;0.25;0.00;;;;;;;;5043537;28;10498;-77
2021/05/24 06:19:16;;;;;;;;;0.00;0.00;;;;;;;;5040051;28;9708;-76
2021/05/24 06:21:43;;;;;;;;;0.00;0.00;;;;;;;;5044733;28;9801;-81
2021/05/24 06:24:11;;;;;;;;;0.00;0.00;;;;;;;;5043381;28;9842;-82
2021/05/24 06:26:38;;;;;;;;;0.00;0.00;;;;;;;;5042656;28;9834;-82
2021/05/24 06:29:05;;;;;;;;;0.00;0.00;;;;;;;;5040090;28;9787;-75
2021/05/24 06:31:33;;;;;;;;;0.00;0.00;;;;;;;;5041754;28;9728;-78
2021/05/24 06:34:01;;;;;;;;;0.00;0.00;;;;;;;;5039640;28;9758;-76
2021/05/24 06:36:27;;;;;;;;;0.00;0.00;;;;;;;;5042237;28;9786;-79
2021/05/24 06:38:54;;;;;;;;;0.75;0.75;;;;;;;;5037165;28;9790;-74
2021/05/24 06:41:21;;;;;;;;;0.00;0.00;;;;;;;;5042656;28;9913;-77
2021/05/24 06:43:47;;;;;;;;;0.75;0.75;;;;;;;;5042618;28;9915;-77
2021/05/24 06:46:15;;;;;;;;;2.00;2.00;;;;;;;;5038559;28;9941;-75
2021/05/24 06:48:43;;;;;;;;;2.00;2.00;;;;;;;;5038211;28;9911;-77
2021/05/24 06:51:10;;;;;;;;;1.00;1.00;;;;;;;;5035440;28;9939;-79
2021/05/24 06:53:37;;;;;;;;;1.25;1.25;;;;;;;;5039344;28;9827;-75
2021/05/24 06:56:04;;;;;;;;;0.25;0.25;;;;;;;;5037158;28;9901;-74
2021/05/24 06:58:31;;;;;;;;;1.00;1.00;;;;;;;;5021358;28;9863;-76
2021/05/24 07:00:58;;;;;;;;;1.00;1.00;;;;;;;;5038361;28;10028;-79
2021/05/24 07:03:25;;;;;;;;;3.00;1.00;;;;;;;;5035795;28;9868;-77
2021/05/24 07:05:53;;;;;;;;;2.00;1.25;;;;;;;;5036802;28;10603;-76
2021/05/24 07:08:20;;;;;;;;;1.50;1.50;;;;;;;;5019918;28;9813;-74
2021/05/24 07:10:47;;;;;;;;;1.00;1.00;;;;;;;;5037353;28;9794;-76
2021/05/24 07:13:15;;;;;;;;;0.75;0.75;;;;;;;;5041273;28;10548;-76
2021/05/24 07:15:43;;;;;;;;;1.25;1.25;;;;;;;;5039690;28;9805;-76
2021/05/24 07:18:10;;;;;;;;;1.00;1.00;;;;;;;;5040170;28;9552;-78
2021/05/24 07:20:38;;;;;;;;;1.50;1.50;;;;;;;;5034679;28;9666;-79
2021/05/24 07:23:06;;;;;;;;;1.00;1.00;;;;;;;;5016909;28;9798;-77
2021/05/24 07:25:33;;;;;;;;;2.00;2.00;;;;;;;;5035282;28;9730;-76
2021/05/24 07:28:01;;;;;;;;;1.00;1.00;;;;;;;;5019770;28;9916;-80
2021/05/24 07:30:28;;;;;;;;;1.00;1.00;;;;;;;;5019557;28;10492;-79
2021/05/24 07:32:54;;;;;;;;;2.00;2.00;;;;;;;;5032050;28;9755;-76
2021/05/24 07:35:21;;;;;;;;;1.00;1.00;;;;;;;;5034573;28;9786;-78
2021/05/24 07:37:48;;;;;;;;;1.00;1.00;;;;;;;;5034055;28;9828;-77
2021/05/24 07:40:16;;;;;;;;;0.00;0.00;;;;;;;;5040249;28;9597;-76
2021/05/24 07:42:45;;;;;;;;;1.00;1.00;;;;;;;;5035353;28;9727;-76
2021/05/24 07:45:12;;;;;;;;;1.00;1.00;;;;;;;;5042982;28;9783;-76
2021/05/24 07:47:38;;;;;;;;;1.50;1.50;;;;;;;;5040694;28;9795;-76
2021/05/24 07:50:07;;;;;;;;;1.00;1.00;;;;;;;;5040593;28;9753;-77
2021/05/24 07:52:34;;;;;;;;;1.00;1.00;;;;;;;;5042240;28;10435;-77
2021/05/24 07:55:02;;;;;;;;;1.00;1.00;;;;;;;;5047176;28;9667;-77
2021/05/24 07:57:31;;;;;;;;;1.00;1.00;;;;;;;;5041706;28;9545;-79
2021/05/24 07:59:58;;;;;;;;;1.00;1.00;;;;;;;;5042720;28;9640;-75
2021/05/24 08:02:25;;;;;;;;;3.00;1.00;;;;;;;;5042352;28;9448;-77
2021/05/24 08:04:52;;;;;;;;;1.00;1.00;;;;;;;;5040819;28;9583;-77
2021/05/24 08:07:19;;;;;;;;;2.00;2.00;;;;;;;;5042978;28;9496;-77
2021/05/24 08:09:47;;;;;;;;;2.00;2.00;;;;;;;;5037815;28;10364;-78
2021/05/24 08:12:14;;;;;;;;;2.00;1.00;;;;;;;;5043425;28;9638;-77
2021/05/24 08:14:43;;;;;;;;;1.00;1.00;;;;;;;;5031913;28;9720;-76
2021/05/24 08:17:10;;;;;;;;;2.25;0.00;;;;;;;;5041345;28;9543;-74
2021/05/24 08:19:37;;;;;;;;;1.00;1.00;;;;;;;;5045948;28;9628;-75
2021/05/24 08:22:04;;;;;;;;;1.25;1.25;;;;;;;;5044902;28;9576;-75
2021/05/24 08:24:31;;;;;;;;;1.50;1.50;;;;;;;;5044900;28;9735;-75
2021/05/24 08:26:57;;;;;;;;;2.00;1.00;;;;;;;;5044454;28;9569;-76
2021/05/24 08:29:24;;;;;;;;;0.33;0.33;;;;;;;;5041519;28;9597;-76
2021/05/24 08:31:52;;;;;;;;;1.00;1.00;;;;;;;;5026335;28;9397;-76
2021/05/24 08:34:19;;;;;;;;;0.00;0.00;;;;;;;;5043382;28;9380;-76
2021/05/24 08:36:46;;;;;;;;;1.00;1.00;;;;;;;;5044198;28;9259;-75
2021/05/24 08:39:13;;;;;;;;;2.67;1.00;;;;;;;;5041387;28;9900;-74
2021/05/24 08:41:41;;;;;;;;;1.00;1.00;;;;;;;;5053362;28;9432;-74
2021/05/24 08:44:08;;;;;;;;;0.00;0.00;;;;;;;;5027689;28;9311;-76
2021/05/24 08:46:36;;;;;;;;;0.67;0.67;;;;;;;;5045774;28;10000;-80
2021/05/24 08:49:05;;;;;;;;;1.33;1.33;;;;;;;;5052682;28;9022;-75
2021/05/24 08:51:32;;;;;;;;;1.00;1.00;;;;;;;;5038954;28;9179;-77
2021/05/24 08:53:59;;;;;;;;;1.00;1.00;;;;;;;;5041520;28;9018;-77
2021/05/24 08:56:26;;;;;;;;;0.33;0.33;;;;;;;;5038150;28;9193;-77
2021/05/24 08:58:58;;;;;;;;;0.00;0.00;;;;;;;;5043774;28;9071;-78
2021/05/24 09:01:25;;;;;;;;;0.00;0.00;;;;;;;;5038854;28;9083;-82
2021/05/24 09:03:58;;;;;;;;;1.33;1.33;;;;;;;;5045300;28;9217;-78
2021/05/24 09:06:36;;;;;;;;;2.00;0.00;;;;;;;;5038908;28;9097;-75
2021/05/24 09:09:13;;;;;;;;;0.00;0.00;;;;;;;;5035794;28;9010;-78
2021/05/24 09:11:41;;;;;;;;;3.00;1.33;;;;;;;;5041619;28;8951;-77
2021/05/24 09:14:17;;;;;;;;;1.00;1.00;;;;;;;;5039486;28;9135;-79
2021/05/24 09:16:44;;;;;;;;;1.67;1.00;;;;;;;;5039169;28;8965;-77
2021/05/24 09:19:16;;;;;;;;;1.00;1.00;;;;;;;;5041514;28;9817;-78
2021/05/24 09:21:52;;;;;;;;;1.00;1.00;;;;;;;;5039140;28;9037;-76
2021/05/24 09:24:21;;;;;;;;;2.00;2.00;;;;;;;;5041602;28;8955;-77
2021/05/24 09:26:48;;;;;;;;;1.00;1.00;;;;;;;;5041745;28;9032;-77
2021/05/24 09:29:16;;;;;;;;;1.75;1.00;;;;;;;;5042311;28;8882;-79
2021/05/24 09:31:44;;;;;;;;;1.25;1.25;;;;;;;;5037675;28;8850;-87
2021/05/24 09:34:11;;;;;;;;;0.75;0.75;;;;;;;;5024102;28;8929;-81
2021/05/24 09:36:38;;;;;;;;;1.00;1.00;;;;;;;;5039773;28;8885;-77
2021/05/24 09:39:09;;;;;;;;;1.00;1.00;;;;;;;;5044386;28;8883;-79
2021/05/24 09:41:41;;;;;;;;;1.00;1.00;;;;;;;;5022903;28;8867;-78
2021/05/24 09:44:08;;;;;;;;;0.00;0.00;;;;;;;;5041203;28;8881;-79
2021/05/24 09:46:39;;;;;;;;;1.00;1.00;;;;;;;;5042948;28;8892;-78
2021/05/24 09:49:06;;;;;;;;;1.00;1.00;;;;;;;;5041070;28;8881;-76
2021/05/24 09:51:37;;;;;;;;;1.00;1.00;;;;;;;;5026169;28;8869;-84
2021/05/24 09:54:09;;;;;;;;;2.25;1.00;;;;;;;;5033785;28;8889;-83
2021/05/24 09:56:37;;;;;;;;;0.00;0.00;;;;;;;;5044174;28;8899;-77
2021/05/24 09:59:07;;;;;;;;;1.00;1.00;;;;;;;;5026617;28;8915;-75
2021/05/24 10:01:37;;;;;;;;;4.00;1.00;;;;;;;;5044842;28;8791;-75
2021/05/24 10:04:05;;;;;;;;;1.00;1.00;;;;;;;;5029274;28;8920;-77
2021/05/24 10:06:32;;;;;;;;;1.00;1.00;;;;;;;;5046185;28;8863;-76
2021/05/24 10:09:00;;;;;;;;;1.25;1.25;;;;;;;;5053522;28;8870;-80
2021/05/24 10:11:29;;;;;;;;;1.50;1.50;;;;;;;;5047991;28;8867;-79
2021/05/24 10:13:57;;;;;;;;;2.25;2.00;;;;;;;;5022908;28;8955;-78
2021/05/24 10:16:26;;;;;;;;;0.25;0.25;;;;;;;;5037772;28;8863;-75
2021/05/24 10:18:54;;;;;;;;;1.00;1.00;;;;;;;;5041289;28;8991;-81
2021/05/24 10:21:21;;;;;;;;;3.00;1.00;;;;;;;;5043077;28;8866;-76
2021/05/24 10:23:47;;;;;;;;;1.00;1.00;;;;;;;;5043014;28;8874;-79
2021/05/24 10:26:15;;;;;;;;;2.25;2.25;;;;;;;;5042191;28;8858;-81
2021/05/24 10:28:45;;;;;;;;;1.00;1.00;;;;;;;;5042108;28;8917;-80
2021/05/24 10:31:18;;;;;;;;;0.75;0.75;;;;;;;;5048533;28;8834;-82
2021/05/24 10:33:46;;;;;;;;;1.00;1.00;;;;;;;;5040361;28;8867;-79
2021/05/24 10:36:20;;;;;;;;;1.00;1.00;;;;;;;;5043892;28;8939;-80
2021/05/24 10:39:02;;;;;;;;;1.75;0.25;;;;;;;;5041048;28;8852;-82
2021/05/24 10:41:43;;;;;;;;;2.00;2.00;;;;;;;;5041924;28;9755;-78
2021/05/24 10:44:14;;;;;;;;;1.00;1.00;;;;;;;;5045067;28;8929;-80
2021/05/24 10:46:41;;;;;;;;;1.00;1.00;;;;;;;;5029326;28;8862;-83
2021/05/24 10:49:27;;;;;;;;;2.00;2.00;;;;;;;;5040833;28;9763;-82
2021/05/24 10:52:03;;;;;;;;;1.00;1.00;;;;;;;;5041593;28;8834;-79
2021/05/24 10:54:38;;;;;;;;;1.75;1.75;;;;;;;;5041411;28;8893;-83
2021/05/24 10:57:23;;;;;;;;;2.00;2.00;;;;;;;;5043137;28;8859;-83
2021/05/24 11:00:14;;;;;;;;;0.00;0.00;;;;;;;;5036867;28;8867;-78
2021/05/24 11:02:41;;;;;;;;;2.00;2.00;;;;;;;;5050112;28;8830;-77
2021/05/24 11:05:32;;;;;;;;;2.00;1.00;;;;;;;;5047258;28;8851;-82
2021/05/24 11:08:01;;;;;;;;;2.00;2.00;;;;;;;;5022458;28;8878;-82
2021/05/24 11:10:33;;;;;;;;;2.75;2.75;;;;;;;;5046466;28;8901;-80
2021/05/24 11:13:23;;;;;;;;;3.00;3.00;;;;;;;;5042583;28;9629;-80
2021/05/24 11:15:52;;;;;;;;;2.75;1.00;;;;;;;;5049260;28;8911;-80
2021/05/24 11:18:22;;;;;;;;;3.00;3.00;;;;;;;;5047510;28;8981;-80
2021/05/24 11:20:51;;;;;;;;;1.75;1.75;;;;;;;;5024291;28;8874;-83
2021/05/24 11:23:35;;;;;;;;;5.00;2.00;;;;;;;;5041830;28;8862;-79
2021/05/24 11:26:33;;;;;;;;;1.25;0.25;;;;;;;;5035424;28;8865;-81
2021/05/24 11:29:15;;;;;;;;;1.00;1.00;;;;;;;;4980254;28;8962;-80
2021/05/24 11:31:48;;;;;;;;;1.00;1.00;;;;;;;;5032998;28;9050;-81
2021/05/24 11:34:32;;;;;;;;;0.67;0.00;;;;;;;;5039801;28;9096;-81
2021/05/24 11:37:01;;;;;;;;;2.67;1.00;;;;;;;;5042966;28;9350;-83
2021/05/24 11:39:33;;;;;;;;;1.00;1.00;;;;;;;;5040900;28;10278;-78
2021/05/24 11:42:04;;;;;;;;;2.00;2.00;;;;;;;;5040390;28;9340;-78
2021/05/24 11:44:35;;;;;;;;;2.00;2.00;;;;;;;;5037171;28;9406;-77
2021/05/24 11:47:06;;;;;;;;;2.00;2.00;;;;;;;;5035245;28;9081;-79
2021/05/24 11:49:38;;;;;;;;;1.75;1.75;;;;;;;;5032237;28;9042;-78
2021/05/24 11:52:07;;;;;;;;;2.00;2.00;;;;;;;;5041785;28;8894;-78
2021/05/24 11:54:34;;;;;;;;;3.25;3.25;;;;;;;;5042830;28;8874;-75
2021/05/24 11:57:04;;;;;;;;;1.75;1.75;;;;;;;;5041170;28;8854;-76
2021/05/24 11:59:32;;;;;;;;;2.50;2.00;;;;;;;;5038015;28;8991;-78
2021/05/24 12:02:02;;;;;;;;;1.25;1.25;;;;;;;;5040814;28;8822;-78
2021/05/24 12:04:32;;;;;;;;;4.00;2.75;;;;;;;;5040015;28;8952;-81
2021/05/24 12:07:01;;;;;;;;;4.50;2.25;;;;;;;;5043051;28;8866;-80
2021/05/24 12:09:40;;;;;;;;;3.00;1.50;;;;;;;;5035759;28;8855;-81
2021/05/24 12:12:10;;;;;;;;;3.25;3.00;;;;;;;;5040181;28;8901;-78
2021/05/24 12:14:37;;;;;;;;;3.00;3.00;;;;;;;;5043215;28;8878;-79
2021/05/24 12:17:09;;;;;;;;;2.00;2.00;;;;;;;;5042485;28;8917;-80
2021/05/24 12:19:38;;;;;;;;;2.33;1.67;;;;;;;;5041619;28;9271;-80
2021/05/24 12:22:06;;;;;;;;;2.00;0.00;;;;;;;;5038410;28;9440;-78
2021/05/24 12:24:38;;;;;;;;;1.00;1.00;;;;;;;;5039872;28;8878;-78
2021/05/24 12:27:06;;;;;;;;;0.75;0.75;;;;;;;;5041421;28;8897;-81
2021/05/24 12:29:35;;;;;;;;;2.00;2.00;;;;;;;;5036968;28;8862;-79
2021/05/24 12:32:04;;;;;;;;;1.50;1.50;;;;;;;;5041849;28;8834;-82
2021/05/24 12:34:35;;;;;;;;;1.00;1.00;;;;;;;;5042811;28;8973;-77
2021/05/24 12:37:04;;;;;;;;;1.75;1.75;;;;;;;;5045210;28;8882;-80
2021/05/24 12:39:33;;;;;;;;;1.00;1.00;;;;;;;;5042740;28;8958;-78
2021/05/24 12:42:01;;;;;;;;;1.00;1.00;;;;;;;;5046187;28;8862;-78
2021/05/24 12:44:29;;;;;;;;;1.00;1.00;;;;;;;;5045051;28;8967;-79
2021/05/24 12:46:58;;;;;;;;;1.00;1.00;;;;;;;;5045456;28;8851;-78
2021/05/24 12:49:34;;;;;;;;;3.25;2.00;;;;;;;;5043291;28;8854;-79
2021/05/24 12:52:04;;;;;;;;;3.00;1.25;;;;;;;;5037946;28;8981;-78
2021/05/24 12:54:43;;;;;;;;;1.00;1.00;;;;;;;;5040750;28;8944;-78
2021/05/24 12:57:11;;;;;;;;;1.00;1.00;;;;;;;;5043866;28;9628;-77
2021/05/24 12:59:48;;;;;;;;;0.50;0.50;;;;;;;;5044226;28;8931;-81
2021/05/24 13:02:19;;;;;;;;;0.00;0.00;;;;;;;;5044346;28;8902;-79
2021/05/24 13:04:46;;;;;;;;;1.50;1.00;;;;;;;;5044661;28;8878;-82
2021/05/24 13:07:17;;;;;;;;;1.00;1.00;;;;;;;;5040488;28;8855;-82
2021/05/24 13:09:46;;;;;;;;;1.00;1.00;;;;;;;;5039557;28;8979;-82
2021/05/24 13:12:22;;;;;;;;;1.00;1.00;;;;;;;;5044316;28;8885;-81
2021/05/24 13:14:55;;;;;;;;;1.75;0.00;;;;;;;;5044734;28;8917;-81
2021/05/24 13:17:29;;;;;;;;;2.50;0.25;;;;;;;;5044393;28;8866;-80
2021/05/24 13:20:08;;;;;;;;;0.75;0.75;;;;;;;;5046851;28;8874;-81
2021/05/24 13:28:48;;;;;;;;;0.75;0.75;;;;;;;;5045281;28;8823;-85
2021/05/24 13:31:24;;;;;;;;;1.00;1.00;;;;;;;;5039978;28;8825;-84
2021/05/24 13:33:55;;;;;;;;;1.00;1.00;;;;;;;;5045229;28;8860;-86
2021/05/24 13:36:24;;;;;;;;;0.00;0.00;;;;;;;;5039804;28;9076;-82
2021/05/24 13:39:07;;;;;;;;;0.00;0.00;;;;;;;;5041114;28;8894;-81
2021/05/24 13:41:36;;;;;;;;;0.00;0.00;;;;;;;;5033966;28;8867;-81
2021/05/24 13:44:05;;;;;;;;;0.00;0.00;;;;;;;;5033853;28;9018;-84
2021/05/24 13:46:32;;;;;;;;;0.00;0.00;;;;;;;;5027593;28;8905;-80
2021/05/24 13:48:58;;;;;;;;;0.00;0.00;;;;;;;;5042783;28;8952;-78
2021/05/24 13:51:26;;;;;;;;;1.75;0.00;;;;;;;;5039541;28;9608;-81
2021/05/24 13:53:54;;;;;;;;;0.00;0.00;;;;;;;;5040399;28;8913;-82
2021/05/24 13:56:23;;;;;;;;;0.00;0.00;;;;;;;;5046026;28;8972;-81
2021/05/24 13:58:51;;;;;;;;;0.00;0.00;;;;;;;;5034191;28;8856;-79
2021/05/24 14:01:18;;;;;;;;;0.00;0.00;;;;;;;;5038130;28;9012;-81
2021/05/24 14:03:45;;;;;;;;;0.00;0.00;;;;;;;;5032026;28;9655;-80
2021/05/24 14:06:13;;;;;;;;;0.00;0.00;;;;;;;;5032007;28;8895;-78
2021/05/24 14:08:40;;;;;;;;;0.00;0.00;;;;;;;;5036353;28;8901;-79
2021/05/24 14:11:07;;;;;;;;;0.00;0.00;;;;;;;;5042202;28;8902;-80
2021/05/24 14:13:36;;;;;;;;;0.50;0.00;;;;;;;;5045184;28;8947;-80
2021/05/24 14:16:03;;;;;;;;;0.00;0.00;;;;;;;;5039822;28;8830;-80
2021/05/24 14:18:30;;;;;;;;;0.00;0.00;;;;;;;;5038394;28;8862;-80
2021/05/24 14:20:56;;;;;;;;;0.00;0.00;;;;;;;;5044895;28;8934;-79
2021/05/24 14:23:23;;;;;;;;;0.00;0.00;;;;;;;;5044155;28;8864;-82
2021/05/24 14:25:50;;;;;;;;;0.00;0.00;;;;;;;;5039934;28;9004;-80
2021/05/24 14:28:17;;;;;;;;;0.00;0.00;;;;;;;;5039283;28;9685;-82
2021/05/24 14:30:45;;;;;;;;;0.50;0.00;;;;;;;;5042981;28;8861;-82
2021/05/24 14:33:12;;;;;;;;;0.00;0.00;;;;;;;;5036638;28;8855;-79
2021/05/24 14:35:39;;;;;;;;;0.00;0.00;;;;;;;;5039316;28;8993;-81
2021/05/24 14:38:06;;;;;;;;;0.00;0.00;;;;;;;;5024408;28;8863;-84
2021/05/24 14:40:34;;;;;;;;;0.00;0.00;;;;;;;;5037312;28;8932;-81
2021/05/24 14:43:01;;;;;;;;;0.00;0.00;;;;;;;;5053265;28;8987;-81
2021/05/24 14:45:28;;;;;;;;;2.50;0.00;;;;;;;;5034271;28;8864;-82
2021/05/24 14:47:57;;;;;;;;;0.00;0.00;;;;;;;;5037722;28;8939;-83
2021/05/24 14:50:26;;;;;;;;;3.00;0.00;;;;;;;;5043426;28;9000;-83
2021/05/24 14:52:55;;;;;;;;;0.50;0.50;;;;;;;;5042183;28;8866;-83
2021/05/24 14:55:22;;;;;;;;;0.00;0.00;;;;;;;;5036339;28;8862;-85
2021/05/24 14:57:49;;;;;;;;;0.50;0.00;;;;;;;;5042474;28;8903;-79
2021/05/24 15:00:18;;;;;;;;;0.00;0.00;;;;;;;;5018894;28;9002;-81
2021/05/24 15:02:46;;;;;;;;;0.00;0.00;;;;;;;;5032790;28;8858;-83
2021/05/24 15:05:14;;;;;;;;;1.25;0.00;;;;;;;;5035401;28;8870;-90
2021/05/24 15:07:41;;;;;;;;;0.00;0.00;;;;;;;;5038652;28;8885;-82
2021/05/24 15:10:08;;;;;;;;;0.00;0.00;;;;;;;;5042697;28;9021;-80